Time;durP1;ratioP1;P1;durP2;ratioP2;P2;SDS_P1;SDS_P2;PMS_P1;PMS_P2;Temp;Humidity;BMP_temperature;BMP_pressure;BME280_temperature;BME280_humidity;BME280_pressure;Samples;Min_cycle;Max_cycle;Signal;HPM_P1;HPM_P2
2023/08/05 00:11:48;;;;;;;;;;;;;;;;;;;;;
2023/08/05 00:12:59;;;;;;;;;;;;;;;;;;;;;
2023/08/05 00:15:08;;;;;;;4.57;2.70;;;;;;;;;;585487;25;1045;-80
2023/08/05 00:18:16;;;;;;;3.05;2.20;;;;;;;;;;588500;24;1504;-79
2023/08/05 00:57:47;;;;;;;4.53;2.20;;;;;;;;;;588572;24;1914;-77
2023/08/05 01:27:42;;;;;;;3.55;2.53;;;;;;;;;;581101;25;1258;-79
2023/08/05 01:28:06;;;;;;;4.50;2.40;;;;;;;;;;572752;25;1429;-79
2023/08/05 01:28:25;;;;;;;4.75;2.53;;;;;;;;;;575207;25;1321;-78
2023/08/05 01:28:50;;;;;;;4.50;2.63;;;;;;;;;;577904;25;1222;-79
2023/08/05 01:29:24;;;;;;;;;;;;;;;;;;;;;
2023/08/05 02:06:25;;;;;;;3.80;2.42;;;;;;;;;;610960;24;1055;-79
2023/08/05 02:10:04;;;;;;;;;;;;;;;;;;;;;
2023/08/05 03:22:36;;;;;;;5.07;2.70;;;;;;;;;;578643;25;1396;-79
2023/08/05 03:25:24;;;;;;;4.05;2.83;;;;;;;;;;577022;25;1702;-79
2023/08/05 03:27:47;;;;;;;4.32;2.50;;;;;;;;;;578422;25;1241;-80
2023/08/05 03:35:28;;;;;;;;;;;;;;;;;;;;;
2023/08/05 03:36:40;;;;;;;;;;;;;;;;;;;;;
2023/08/05 04:10:37;;;;;;;;;;;;;;;;;;;;;
2023/08/05 04:13:03;;;;;;;;;;;;;;;;;;;;;
2023/08/05 04:13:44;;;;;;;3.53;2.55;;;;;;;;;;590362;24;1359;-78
2023/08/05 04:15:14;;;;;;;;;;;;;;;;;;;;;
2023/08/05 04:25:34;;;;;;;;;;;;;;;;;;;;;
2023/08/05 04:46:12;;;;;;;;;;;;;;;;;;;;;
2023/08/05 05:00:41;;;;;;;;;;;;;;;;;;;;;
2023/08/05 05:08:15;;;;;;;3.60;3.00;;;;;;;;;;587809;24;1061;-77
2023/08/05 05:11:43;;;;;;;;;;;;;;;;;;;;;
2023/08/05 05:28:08;;;;;;;;;;;;;;;;;;;;;
2023/08/05 05:29:23;;;;;;;;;;;;;;;;;;;;;
2023/08/05 05:33:47;;;;;;;4.93;3.47;;;;;;;;;;600711;24;1326;-77
2023/08/05 05:56:32;;;;;;;3.85;3.28;;;;;;;;;;607729;24;1193;-77
2023/08/05 05:57:34;;;;;;;;;;;;;;;;;;;;;
2023/08/05 06:22:08;;;;;;;3.00;2.60;;;;;;;;;;594917;24;1138;-77
2023/08/05 06:25:42;;;;;;;;;;;;;;;;;;;;;
2023/08/05 06:41:36;;;;;;;3.05;2.53;;;;;;;;;;630604;23;1338;-77
2023/08/05 06:42:23;;;;;;;2.65;2.40;;;;;;;;;;620300;23;1376;-77
2023/08/05 06:44:39;;;;;;;;;;;;;;;;;;;;;
2023/08/05 06:49:40;;;;;;;;;;;;;;;;;;;;;
2023/08/05 06:56:14;;;;;;;4.30;2.60;;;;;;;;;;508647;28;1133;-78
2023/08/05 06:57:12;;;;;;;;;;;;;;;;;;;;;
2023/08/05 07:02:13;;;;;;;3.92;2.40;;;;;;;;;;491219;29;1856;-76
2023/08/05 07:02:49;;;;;;;2.60;2.33;;;;;;;;;;483745;29;1178;-75
2023/08/05 07:03:13;;;;;;;3.38;2.63;;;;;;;;;;490207;29;1105;-76
2023/08/05 07:03:31;;;;;;;3.08;2.45;;;;;;;;;;492162;29;1144;-75
2023/08/05 07:03:56;;;;;;;3.40;2.60;;;;;;;;;;491411;29;1493;-77
2023/08/05 07:05:04;;;;;;;2.70;2.40;;;;;;;;;;490536;29;936;-75
2023/08/05 07:06:04;;;;;;;5.72;2.85;;;;;;;;;;486139;29;1460;-75
2023/08/05 07:08:48;;;;;;;2.70;2.40;;;;;;;;;;518539;27;20412;-76
2023/08/05 07:10:31;;;;;;;3.90;2.90;;;;;;;;;;504408;28;1277;-75
2023/08/05 07:11:12;;;;;;;3.00;2.70;;;;;;;;;;504886;28;942;-75
2023/08/05 07:11:48;;;;;;;3.55;2.60;;;;;;;;;;497526;29;1821;-76
2023/08/05 07:12:32;;;;;;;;;;;;;;;;;;;;;
2023/08/05 07:14:51;;;;;;;2.40;2.20;;;;;;;;;;495064;29;1269;-75
2023/08/05 07:18:01;;;;;;;;;;;;;;;;;;;;;
2023/08/05 07:20:18;;;;;;;;;;;;;;;;;;;;;
2023/08/05 07:21:16;;;;;;;;;;;;;;;;;;;;;
2023/08/05 07:22:42;;;;;;;;;;;;;;;;;;;;;
2023/08/05 07:42:25;;;;;;;4.13;2.53;;;;;;;;;;624727;23;1205;-75
2023/08/05 07:43:08;;;;;;;3.75;2.65;;;;;;;;;;621734;23;1411;-75
2023/08/05 07:45:35;;;;;;;4.05;2.70;;;;;;;;;;612576;23;1171;-75
2023/08/05 08:07:45;;;;;;;;;;;;;;;;;;;;;
2023/08/05 08:13:04;;;;;;;;;;;;;;;;;;;;;
2023/08/05 08:15:27;;;;;;;;;;;;;;;;;;;;;
2023/08/05 08:16:03;;;;;;;4.65;4.13;;;;;;;;;;582417;25;1194;-78
2023/08/05 08:16:37;;;;;;;5.97;4.70;;;;;;;;;;580470;25;1133;-76
2023/08/05 08:17:49;;;;;;;;;;;;;;;;;;;;;
2023/08/05 08:18:20;;;;;;;6.38;4.85;;;;;;;;;;586560;24;1099;-77
2023/08/05 08:19:16;;;;;;;;;;;;;;;;;;;;;
2023/08/05 08:20:43;;;;;;;;;;;;;;;;;;;;;
2023/08/05 08:21:36;;;;;;;5.75;4.60;;;;;;;;;;581468;25;1523;-77
2023/08/05 08:22:31;;;;;;;;;;;;;;;;;;;;;
2023/08/05 08:23:06;;;;;;;;;;;;;;;;;;;;;
2023/08/05 08:23:28;;;;;;;5.63;5.13;;;;;;;;;;586580;24;787;-75
2023/08/05 08:23:53;;;;;;;6.75;5.40;;;;;;;;;;587295;24;861;-76
2023/08/05 08:24:15;;;;;;;6.30;5.35;;;;;;;;;;587518;24;1330;-75
2023/08/05 08:24:50;;;;;;;;;;;;;;;;;;;;;
2023/08/05 08:25:06;;;;;;;6.53;5.47;;;;;;;;;;587286;24;768;-76
2023/08/05 08:25:25;;;;;;;5.90;5.30;;;;;;;;;;586650;24;1017;-75
2023/08/05 08:25:46;;;;;;;6.10;5.38;;;;;;;;;;586704;24;1434;-75
2023/08/05 08:26:02;;;;;;;6.25;5.18;;;;;;;;;;584550;25;1005;-75
2023/08/05 08:26:21;;;;;;;5.72;5.20;;;;;;;;;;584889;24;1440;-76
2023/08/05 08:27:08;;;;;;;;;;;;;;;;;;;;;
2023/08/05 08:27:24;;;;;;;5.80;5.20;;;;;;;;;;585338;25;701;-76
2023/08/05 08:27:48;;;;;;;5.75;5.13;;;;;;;;;;582387;25;1409;-75
2023/08/05 08:28:09;;;;;;;6.00;5.40;;;;;;;;;;584039;25;1946;-75
2023/08/05 08:28:34;;;;;;;6.53;5.40;;;;;;;;;;583693;24;1105;-76
2023/08/05 08:29:26;;;;;;;;;;;;;;;;;;;;;
2023/08/05 08:30:22;;;;;;;6.40;5.80;;;;;;;;;;580169;25;1069;-74
2023/08/05 08:30:38;;;;;;;6.03;5.43;;;;;;;;;;581029;25;1173;-76
2023/08/05 08:30:57;;;;;;;6.22;5.63;;;;;;;;;;580900;25;1982;-75
2023/08/05 08:31:13;;;;;;;7.25;5.78;;;;;;;;;;588794;24;1100;-75
2023/08/05 08:31:31;;;;;;;8.00;5.78;;;;;;;;;;590295;24;818;-75
2023/08/05 08:31:47;;;;;;;6.43;5.63;;;;;;;;;;593749;24;2000;-75
2023/08/05 08:32:03;;;;;;;6.40;5.80;;;;;;;;;;593346;24;1325;-75
2023/08/05 08:32:22;;;;;;;6.47;5.78;;;;;;;;;;593595;24;1305;-73
2023/08/05 08:32:41;;;;;;;6.07;5.47;;;;;;;;;;593269;24;1050;-74
2023/08/05 08:33:02;;;;;;;6.30;5.70;;;;;;;;;;589531;24;1198;-74
2023/08/05 08:33:21;;;;;;;6.05;5.47;;;;;;;;;;588494;24;1325;-74
2023/08/05 08:33:37;;;;;;;6.43;5.50;;;;;;;;;;586044;24;1242;-74
2023/08/05 08:33:53;;;;;;;6.82;5.55;;;;;;;;;;585381;24;969;-72
2023/08/05 08:34:38;;;;;;;5.93;5.30;;;;;;;;;;586782;24;1121;-74
2023/08/05 08:34:54;;;;;;;7.40;5.43;;;;;;;;;;582237;25;1210;-74
2023/08/05 08:35:09;;;;;;;7.85;5.85;;;;;;;;;;583469;25;1539;-73
2023/08/05 08:35:25;;;;;;;6.50;5.80;;;;;;;;;;582308;25;1223;-74
2023/08/05 08:35:41;;;;;;;6.35;5.63;;;;;;;;;;579704;25;1239;-75
2023/08/05 08:35:59;;;;;;;6.30;5.50;;;;;;;;;;584458;24;1353;-74
2023/08/05 08:36:15;;;;;;;6.10;5.50;;;;;;;;;;584144;24;909;-74
2023/08/05 08:36:31;;;;;;;5.95;5.35;;;;;;;;;;584375;24;905;-74
2023/08/05 08:36:57;;;;;;;;;;;;;;;;;;;;;
2023/08/05 08:37:13;;;;;;;7.28;5.90;;;;;;;;;;588414;24;1312;-74
2023/08/05 08:37:31;;;;;;;7.07;5.60;;;;;;;;;;588444;24;1120;-74
2023/08/05 08:37:49;;;;;;;7.45;5.70;;;;;;;;;;589853;24;1167;-74
2023/08/05 08:38:15;;;;;;;7.35;5.53;;;;;;;;;;590147;24;850;-74
2023/08/05 08:38:33;;;;;;;6.20;5.20;;;;;;;;;;589755;24;1192;-73
2023/08/05 08:38:49;;;;;;;6.70;5.18;;;;;;;;;;589075;24;889;-74
2023/08/05 08:39:46;;;;;;;5.85;5.25;;;;;;;;;;589638;24;1218;-74
2023/08/05 08:40:02;;;;;;;5.72;5.22;;;;;;;;;;593934;24;1080;-74
2023/08/05 08:40:21;;;;;;;6.50;5.60;;;;;;;;;;590751;24;1222;-74
2023/08/05 08:41:04;;;;;;;7.13;5.43;;;;;;;;;;587595;24;1305;-74
2023/08/05 08:41:29;;;;;;;7.20;6.10;;;;;;;;;;575840;25;1323;-74
2023/08/05 08:41:52;;;;;;;6.97;6.20;;;;;;;;;;579966;25;1439;-75
2023/08/05 08:42:08;;;;;;;7.78;6.40;;;;;;;;;;579192;24;1545;-74
2023/08/05 08:42:26;;;;;;;8.38;6.20;;;;;;;;;;590385;24;1058;-73
2023/08/05 08:42:53;;;;;;;8.18;6.03;;;;;;;;;;590655;24;1322;-74
2023/08/05 08:43:12;;;;;;;10.00;5.95;;;;;;;;;;590661;24;1323;-74
2023/08/05 08:43:37;;;;;;;8.90;5.60;;;;;;;;;;592489;24;1119;-72
2023/08/05 08:43:55;;;;;;;7.32;5.65;;;;;;;;;;595370;24;1298;-75
2023/08/05 08:44:18;;;;;;;7.70;5.93;;;;;;;;;;592192;24;1297;-75
2023/08/05 08:44:43;;;;;;;6.53;5.60;;;;;;;;;;592865;24;1380;-74
2023/08/05 08:45:01;;;;;;;10.95;5.88;;;;;;;;;;596267;24;1064;-74
2023/08/05 08:45:21;;;;;;;10.90;5.85;;;;;;;;;;604348;24;1509;-75
2023/08/05 08:45:37;;;;;;;7.95;5.75;;;;;;;;;;601743;24;1473;-74
2023/08/05 08:45:53;;;;;;;9.27;5.80;;;;;;;;;;599298;24;1308;-73
2023/08/05 08:46:11;;;;;;;9.20;5.90;;;;;;;;;;598317;24;845;-75
2023/08/05 08:46:27;;;;;;;7.20;5.90;;;;;;;;;;596365;24;1358;-74
2023/08/05 08:46:49;;;;;;;9.40;6.10;;;;;;;;;;598234;24;975;-75
2023/08/05 08:47:05;;;;;;;7.22;6.03;;;;;;;;;;595620;24;1581;-74
2023/08/05 08:47:24;;;;;;;6.93;5.90;;;;;;;;;;592734;24;1345;-74
2023/08/05 08:47:41;;;;;;;7.43;5.82;;;;;;;;;;602719;24;1438;-75
2023/08/05 08:47:57;;;;;;;7.63;5.70;;;;;;;;;;606366;23;1266;-75
2023/08/05 08:48:15;;;;;;;8.18;5.82;;;;;;;;;;612823;23;1222;-74
2023/08/05 08:48:35;;;;;;;7.07;5.90;;;;;;;;;;613222;23;2122;-75
2023/08/05 08:48:56;;;;;;;7.97;5.90;;;;;;;;;;612026;23;820;-74
2023/08/05 08:49:16;;;;;;;7.25;5.63;;;;;;;;;;612991;23;1429;-74
2023/08/05 08:49:41;;;;;;;6.10;5.13;;;;;;;;;;615789;23;792;-74
2023/08/05 08:50:01;;;;;;;7.10;5.85;;;;;;;;;;618400;23;927;-75
2023/08/05 08:50:20;;;;;;;6.70;5.55;;;;;;;;;;620924;23;1843;-75
2023/08/05 08:50:41;;;;;;;7.32;5.40;;;;;;;;;;621101;23;1359;-72
2023/08/05 08:51:00;;;;;;;7.50;5.45;;;;;;;;;;621238;23;1991;-73
2023/08/05 08:51:21;;;;;;;8.10;6.18;;;;;;;;;;623627;23;1174;-74
2023/08/05 08:51:44;;;;;;;8.88;6.30;;;;;;;;;;624775;23;834;-74
2023/08/05 08:52:00;;;;;;;9.27;5.82;;;;;;;;;;629899;23;1520;-74
2023/08/05 08:52:18;;;;;;;6.85;5.65;;;;;;;;;;627653;23;1296;-74
2023/08/05 08:52:37;;;;;;;6.15;5.55;;;;;;;;;;624506;23;1380;-75
2023/08/05 08:52:57;;;;;;;9.02;6.07;;;;;;;;;;621618;23;1276;-75
2023/08/05 08:53:13;;;;;;;7.15;6.10;;;;;;;;;;623515;23;1054;-74
2023/08/05 08:53:31;;;;;;;6.43;5.68;;;;;;;;;;621831;23;1277;-74
2023/08/05 08:53:47;;;;;;;7.80;5.65;;;;;;;;;;619126;23;1216;-75
2023/08/05 08:54:03;;;;;;;6.70;5.90;;;;;;;;;;619611;23;1449;-76
2023/08/05 08:54:20;;;;;;;6.53;5.70;;;;;;;;;;622345;23;856;-74
2023/08/05 08:54:36;;;;;;;6.85;5.40;;;;;;;;;;621489;23;1523;-74
2023/08/05 08:54:51;;;;;;;7.30;5.78;;;;;;;;;;620878;23;1277;-74
2023/08/05 08:55:08;;;;;;;7.43;5.90;;;;;;;;;;621530;23;1371;-74
2023/08/05 08:55:25;;;;;;;6.75;5.97;;;;;;;;;;622664;23;1243;-75
2023/08/05 08:55:41;;;;;;;6.40;5.63;;;;;;;;;;622899;23;1245;-75
2023/08/05 08:55:57;;;;;;;7.32;5.60;;;;;;;;;;625831;23;1340;-75
2023/08/05 08:56:12;;;;;;;7.13;5.60;;;;;;;;;;625480;23;1436;-75
2023/08/05 08:56:28;;;;;;;9.55;5.90;;;;;;;;;;625759;23;832;-76
2023/08/05 08:56:43;;;;;;;12.47;6.47;;;;;;;;;;624890;23;1177;-77
2023/08/05 08:56:58;;;;;;;9.27;6.07;;;;;;;;;;624908;23;974;-76
2023/08/05 08:57:15;;;;;;;6.37;5.43;;;;;;;;;;625793;23;1630;-76
2023/08/05 08:57:30;;;;;;;5.80;5.10;;;;;;;;;;624572;23;1269;-74
2023/08/05 08:57:46;;;;;;;6.07;5.40;;;;;;;;;;622368;23;1288;-74
2023/08/05 08:58:02;;;;;;;7.40;5.73;;;;;;;;;;622552;23;1235;-74
2023/08/05 08:58:17;;;;;;;7.30;5.70;;;;;;;;;;624702;23;892;-74
2023/08/05 08:58:32;;;;;;;6.87;5.57;;;;;;;;;;624544;23;1247;-75
2023/08/05 08:58:48;;;;;;;8.17;5.50;;;;;;;;;;624622;23;888;-75
2023/08/05 08:59:03;;;;;;;7.05;5.00;;;;;;;;;;624925;23;936;-73
2023/08/05 08:59:18;;;;;;;5.53;5.00;;;;;;;;;;624769;23;1171;-75
2023/08/05 08:59:34;;;;;;;5.90;5.30;;;;;;;;;;627927;23;1165;-75
2023/08/05 08:59:49;;;;;;;5.78;5.18;;;;;;;;;;630880;23;931;-73
2023/08/05 09:00:06;;;;;;;6.07;5.43;;;;;;;;;;630603;23;1284;-75
2023/08/05 09:00:22;;;;;;;8.07;5.63;;;;;;;;;;627489;23;1316;-75
2023/08/05 09:00:37;;;;;;;8.23;5.30;;;;;;;;;;627481;23;1218;-74
2023/08/05 09:00:53;;;;;;;7.20;5.37;;;;;;;;;;627346;23;1206;-74
2023/08/05 09:01:09;;;;;;;6.82;5.40;;;;;;;;;;627346;23;1030;-74
2023/08/05 09:01:26;;;;;;;7.35;5.53;;;;;;;;;;626202;23;1343;-75
2023/08/05 09:01:44;;;;;;;8.70;5.38;;;;;;;;;;623542;23;1304;-75
2023/08/05 09:02:02;;;;;;;9.25;5.18;;;;;;;;;;623332;23;1351;-75
2023/08/05 09:02:23;;;;;;;6.70;5.13;;;;;;;;;;624610;23;1311;-74
2023/08/05 09:02:39;;;;;;;6.15;4.90;;;;;;;;;;625650;23;1264;-74
2023/08/05 09:02:54;;;;;;;7.50;5.07;;;;;;;;;;625229;23;1022;-74
2023/08/05 09:03:10;;;;;;;6.70;4.97;;;;;;;;;;623213;23;1215;-74
2023/08/05 09:03:28;;;;;;;5.50;4.50;;;;;;;;;;622773;23;851;-74
2023/08/05 09:03:48;;;;;;;5.43;4.57;;;;;;;;;;623207;23;998;-74
2023/08/05 09:04:05;;;;;;;6.68;4.90;;;;;;;;;;626083;23;1580;-74
2023/08/05 09:04:22;;;;;;;6.43;4.65;;;;;;;;;;622308;23;1338;-74
2023/08/05 09:04:40;;;;;;;6.60;4.70;;;;;;;;;;625841;23;1007;-74
2023/08/05 09:04:56;;;;;;;6.68;4.55;;;;;;;;;;626012;23;1288;-75
2023/08/05 09:05:11;;;;;;;7.18;4.50;;;;;;;;;;626063;23;1248;-75
2023/08/05 09:05:32;;;;;;;6.90;4.53;;;;;;;;;;623039;23;1306;-74
2023/08/05 09:05:53;;;;;;;6.43;4.60;;;;;;;;;;626213;23;1034;-75
2023/08/05 09:06:09;;;;;;;6.18;4.70;;;;;;;;;;622861;23;836;-74
2023/08/05 09:06:25;;;;;;;5.93;4.63;;;;;;;;;;623038;23;1193;-74
2023/08/05 09:06:44;;;;;;;5.18;4.57;;;;;;;;;;625834;23;1428;-75
2023/08/05 09:07:00;;;;;;;5.22;4.50;;;;;;;;;;626735;23;941;-75
2023/08/05 09:07:16;;;;;;;5.18;4.13;;;;;;;;;;629673;23;1327;-75
2023/08/05 09:07:31;;;;;;;4.93;4.10;;;;;;;;;;631502;23;1053;-75
2023/08/05 09:07:49;;;;;;;5.05;4.30;;;;;;;;;;628950;23;1197;-75
2023/08/05 09:08:04;;;;;;;5.75;4.38;;;;;;;;;;629556;23;851;-74
2023/08/05 09:08:20;;;;;;;5.43;4.30;;;;;;;;;;627708;23;1215;-75
2023/08/05 09:08:35;;;;;;;5.87;4.43;;;;;;;;;;629236;23;918;-75
2023/08/05 09:08:51;;;;;;;12.65;5.20;;;;;;;;;;629063;23;1048;-77
2023/08/05 09:09:06;;;;;;;11.87;5.10;;;;;;;;;;629162;23;811;-74
2023/08/05 09:09:22;;;;;;;5.78;4.75;;;;;;;;;;628701;23;977;-75
2023/08/05 09:09:37;;;;;;;5.43;4.83;;;;;;;;;;630203;23;1352;-75
2023/08/05 09:09:53;;;;;;;5.50;4.60;;;;;;;;;;629346;23;1275;-75
2023/08/05 09:10:09;;;;;;;5.90;4.50;;;;;;;;;;629062;23;982;-75
2023/08/05 09:10:25;;;;;;;4.93;4.40;;;;;;;;;;629341;23;1109;-75
2023/08/05 09:10:43;;;;;;;5.47;4.47;;;;;;;;;;625555;23;1169;-76
2023/08/05 09:11:00;;;;;;;6.10;4.32;;;;;;;;;;626179;23;1901;-74
2023/08/05 09:11:16;;;;;;;5.00;4.13;;;;;;;;;;623251;23;1437;-75
2023/08/05 09:11:31;;;;;;;4.85;4.10;;;;;;;;;;625266;23;1223;-75
2023/08/05 09:11:46;;;;;;;5.65;4.25;;;;;;;;;;627550;23;1214;-75
2023/08/05 09:12:02;;;;;;;5.37;4.00;;;;;;;;;;628895;23;851;-76
2023/08/05 09:12:18;;;;;;;4.28;3.88;;;;;;;;;;629398;23;931;-76
2023/08/05 09:12:34;;;;;;;5.23;4.23;;;;;;;;;;626417;23;1322;-74
2023/08/05 09:12:49;;;;;;;7.13;4.43;;;;;;;;;;622410;23;1388;-75
2023/08/05 09:13:06;;;;;;;8.68;4.47;;;;;;;;;;623392;23;1419;-75
2023/08/05 09:13:21;;;;;;;8.55;4.50;;;;;;;;;;625519;23;847;-74
2023/08/05 09:13:38;;;;;;;9.95;4.60;;;;;;;;;;623182;23;1360;-75
2023/08/05 09:13:53;;;;;;;7.70;4.80;;;;;;;;;;625821;23;1133;-75
2023/08/05 09:14:09;;;;;;;5.82;4.78;;;;;;;;;;622683;23;1225;-75
2023/08/05 09:14:24;;;;;;;6.57;4.47;;;;;;;;;;623269;23;1010;-75
2023/08/05 09:14:40;;;;;;;7.23;4.47;;;;;;;;;;624939;23;1261;-76
2023/08/05 09:14:56;;;;;;;5.95;4.32;;;;;;;;;;625206;23;1114;-75
2023/08/05 09:15:14;;;;;;;4.78;4.10;;;;;;;;;;623797;23;904;-74
2023/08/05 09:15:37;;;;;;;5.40;4.30;;;;;;;;;;627187;23;1005;-75
2023/08/05 09:15:53;;;;;;;4.78;4.22;;;;;;;;;;628953;23;1090;-75
2023/08/05 09:16:13;;;;;;;4.90;4.40;;;;;;;;;;628881;23;1335;-74
2023/08/05 09:16:29;;;;;;;5.47;4.57;;;;;;;;;;629147;23;1006;-75
2023/08/05 09:17:00;;;;;;;6.15;4.45;;;;;;;;;;629154;23;1296;-75
2023/08/05 09:17:15;;;;;;;5.75;4.45;;;;;;;;;;625554;23;1294;-75
2023/08/05 09:17:38;;;;;;;5.60;4.37;;;;;;;;;;626133;23;1429;-75
2023/08/05 09:17:56;;;;;;;5.10;4.45;;;;;;;;;;626348;23;875;-75
2023/08/05 09:18:11;;;;;;;4.72;4.25;;;;;;;;;;629188;23;982;-75
2023/08/05 09:18:27;;;;;;;5.73;4.33;;;;;;;;;;625916;23;1286;-74
2023/08/05 09:18:44;;;;;;;6.72;4.60;;;;;;;;;;625971;23;1307;-75
2023/08/05 09:19:01;;;;;;;6.30;4.50;;;;;;;;;;626455;23;867;-75
2023/08/05 09:19:24;;;;;;;5.03;4.35;;;;;;;;;;625675;23;926;-74
2023/08/05 09:19:42;;;;;;;6.93;4.28;;;;;;;;;;628921;23;878;-75
2023/08/05 09:20:09;;;;;;;5.90;3.95;;;;;;;;;;626304;23;1035;-74
2023/08/05 09:20:25;;;;;;;5.75;4.50;;;;;;;;;;630338;23;867;-75
2023/08/05 09:20:40;;;;;;;4.78;4.07;;;;;;;;;;631512;23;741;-76
2023/08/05 09:20:59;;;;;;;4.23;3.70;;;;;;;;;;631128;23;906;-74
2023/08/05 09:21:22;;;;;;;4.72;3.92;;;;;;;;;;625919;23;934;-74
2023/08/05 09:21:39;;;;;;;4.93;4.07;;;;;;;;;;620539;23;1256;-75
2023/08/05 09:21:55;;;;;;;5.18;4.13;;;;;;;;;;621038;23;994;-74
2023/08/05 09:22:11;;;;;;;4.72;3.97;;;;;;;;;;619817;23;882;-74
2023/08/05 09:22:50;;;;;;;4.60;4.05;;;;;;;;;;619016;23;1220;-75
2023/08/05 09:23:09;;;;;;;5.85;4.10;;;;;;;;;;607989;23;1572;-75
2023/08/05 09:23:25;;;;;;;4.57;3.83;;;;;;;;;;619893;23;1401;-73
2023/08/05 09:23:53;;;;;;;5.68;3.80;;;;;;;;;;618990;23;1305;-74
2023/08/05 09:24:08;;;;;;;4.88;3.90;;;;;;;;;;616193;23;919;-74
2023/08/05 09:24:27;;;;;;;4.47;4.07;;;;;;;;;;613026;23;1305;-74
2023/08/05 09:24:43;;;;;;;5.53;4.22;;;;;;;;;;613249;23;1199;-74
2023/08/05 09:25:02;;;;;;;5.68;4.00;;;;;;;;;;611654;23;1379;-74
2023/08/05 09:25:24;;;;;;;4.45;3.75;;;;;;;;;;612437;23;1156;-74
2023/08/05 09:26:00;;;;;;;4.95;3.90;;;;;;;;;;615200;23;1208;-74
2023/08/05 09:26:28;;;;;;;6.13;4.00;;;;;;;;;;618461;23;1242;-73
2023/08/05 09:26:44;;;;;;;4.32;3.70;;;;;;;;;;616587;23;1413;-74
2023/08/05 09:27:01;;;;;;;3.88;3.42;;;;;;;;;;613452;23;1233;-74
2023/08/05 09:27:17;;;;;;;4.97;3.78;;;;;;;;;;610386;23;1365;-74
2023/08/05 09:27:46;;;;;;;5.53;3.95;;;;;;;;;;611829;23;1144;-73
2023/08/05 09:28:38;;;;;;;5.25;4.03;;;;;;;;;;610183;23;1343;-73
2023/08/05 09:28:58;;;;;;;5.28;3.80;;;;;;;;;;620027;23;935;-74
2023/08/05 09:29:21;;;;;;;10.35;4.22;;;;;;;;;;618375;23;1301;-74
2023/08/05 09:29:36;;;;;;;10.48;4.35;;;;;;;;;;616852;23;1410;-74
2023/08/05 09:29:52;;;;;;;11.38;4.40;;;;;;;;;;613822;23;1355;-75
2023/08/05 09:30:15;;;;;;;15.18;4.75;;;;;;;;;;613938;23;1197;-75
2023/08/05 09:30:39;;;;;;;12.15;4.35;;;;;;;;;;613307;23;1347;-74
2023/08/05 09:31:19;;;;;;;10.82;4.00;;;;;;;;;;610079;23;1925;-74
2023/08/05 09:31:35;;;;;;;6.07;3.78;;;;;;;;;;614464;23;1412;-75
2023/08/05 09:32:04;;;;;;;4.78;3.40;;;;;;;;;;617949;23;1137;-75
2023/08/05 09:32:19;;;;;;;4.85;3.60;;;;;;;;;;618459;23;1574;-75
2023/08/05 09:32:42;;;;;;;5.20;3.55;;;;;;;;;;615968;23;1255;-75
2023/08/05 09:32:58;;;;;;;5.03;3.47;;;;;;;;;;614140;23;1530;-75
2023/08/05 09:33:19;;;;;;;5.80;3.60;;;;;;;;;;612775;23;1226;-74
2023/08/05 09:33:35;;;;;;;6.47;3.80;;;;;;;;;;616527;23;844;-75
2023/08/05 09:34:12;;;;;;;5.03;3.88;;;;;;;;;;616920;23;1396;-74
2023/08/05 09:34:37;;;;;;;5.20;3.50;;;;;;;;;;612555;23;1254;-75
2023/08/05 09:34:54;;;;;;;5.20;3.65;;;;;;;;;;619840;23;1465;-76
2023/08/05 09:35:10;;;;;;;5.07;3.72;;;;;;;;;;618069;23;1360;-75
2023/08/05 09:35:29;;;;;;;4.35;3.45;;;;;;;;;;618167;23;1368;-75
2023/08/05 09:35:47;;;;;;;3.78;3.15;;;;;;;;;;614692;23;1219;-75
2023/08/05 09:36:12;;;;;;;5.10;3.20;;;;;;;;;;613512;23;1114;-75
2023/08/05 09:36:33;;;;;;;4.35;2.95;;;;;;;;;;614331;23;1470;-75
2023/08/05 09:36:48;;;;;;;4.65;3.40;;;;;;;;;;615245;23;1365;-75
2023/08/05 09:37:13;;;;;;;4.63;3.47;;;;;;;;;;615769;23;1605;-75
2023/08/05 09:37:29;;;;;;;3.60;3.10;;;;;;;;;;618772;23;1460;-75
2023/08/05 09:37:49;;;;;;;3.92;3.10;;;;;;;;;;618954;23;1557;-75
2023/08/05 09:38:13;;;;;;;4.05;3.20;;;;;;;;;;618795;23;1494;-75
2023/08/05 09:38:44;;;;;;;3.30;3.00;;;;;;;;;;618313;23;1498;-75
2023/08/05 09:39:06;;;;;;;4.57;3.10;;;;;;;;;;616630;23;1406;-75
2023/08/05 09:39:23;;;;;;;3.78;2.95;;;;;;;;;;615253;23;1480;-75
2023/08/05 09:39:50;;;;;;;4.78;3.25;;;;;;;;;;617906;23;1513;-76
2023/08/05 09:40:32;;;;;;;4.25;3.30;;;;;;;;;;621065;23;929;-75
2023/08/05 09:40:52;;;;;;;3.40;3.10;;;;;;;;;;605860;24;1348;-76
2023/08/05 09:41:09;;;;;;;3.33;3.00;;;;;;;;;;614187;23;1451;-76
2023/08/05 09:41:35;;;;;;;3.45;2.95;;;;;;;;;;611993;23;1452;-75
2023/08/05 09:41:54;;;;;;;3.53;3.00;;;;;;;;;;614915;23;1498;-75
2023/08/05 09:42:24;;;;;;;3.85;3.22;;;;;;;;;;612921;23;1228;-76
2023/08/05 09:42:47;;;;;;;4.20;3.17;;;;;;;;;;616403;23;1512;-76
2023/08/05 09:43:07;;;;;;;3.15;2.83;;;;;;;;;;618599;23;926;-75
2023/08/05 09:43:24;;;;;;;3.72;2.90;;;;;;;;;;615455;23;1616;-75
2023/08/05 09:43:54;;;;;;;4.40;3.10;;;;;;;;;;614230;23;1625;-75
2023/08/05 09:44:10;;;;;;;4.88;3.40;;;;;;;;;;617070;23;1569;-76
2023/08/05 09:44:30;;;;;;;4.95;3.30;;;;;;;;;;615823;23;1407;-74
2023/08/05 09:44:54;;;;;;;4.05;2.92;;;;;;;;;;615717;23;1337;-76
2023/08/05 09:45:20;;;;;;;4.83;2.83;;;;;;;;;;615644;23;1315;-76
2023/08/05 09:45:37;;;;;;;5.43;3.10;;;;;;;;;;615538;23;1171;-76
2023/08/05 09:46:04;;;;;;;3.63;2.80;;;;;;;;;;612337;23;1416;-74
2023/08/05 09:46:45;;;;;;;3.90;3.08;;;;;;;;;;615368;23;1495;-75
2023/08/05 09:47:07;;;;;;;4.68;2.92;;;;;;;;;;615705;23;1468;-74
2023/08/05 09:47:27;;;;;;;3.30;2.92;;;;;;;;;;616169;23;879;-75
2023/08/05 09:47:47;;;;;;;3.90;2.90;;;;;;;;;;613383;23;1502;-75
2023/08/05 09:48:10;;;;;;;4.00;3.00;;;;;;;;;;615626;23;872;-75
2023/08/05 09:48:31;;;;;;;4.15;3.10;;;;;;;;;;618573;23;1356;-75
2023/08/05 09:48:56;;;;;;;3.92;3.20;;;;;;;;;;618119;23;902;-75
2023/08/05 09:49:17;;;;;;;3.20;2.90;;;;;;;;;;621165;23;881;-76
2023/08/05 09:49:37;;;;;;;3.92;3.17;;;;;;;;;;624603;23;1450;-76
2023/08/05 09:49:55;;;;;;;4.38;3.47;;;;;;;;;;624751;23;1329;-75
2023/08/05 09:50:15;;;;;;;4.35;3.20;;;;;;;;;;622390;23;1285;-75
2023/08/05 09:50:31;;;;;;;4.80;3.15;;;;;;;;;;618214;23;1110;-75
2023/08/05 09:50:48;;;;;;;4.78;3.25;;;;;;;;;;615188;23;1939;-76
2023/08/05 09:51:13;;;;;;;4.73;3.10;;;;;;;;;;615933;23;1256;-75
2023/08/05 09:51:30;;;;;;;4.10;3.00;;;;;;;;;;616854;23;1353;-75
2023/08/05 09:51:51;;;;;;;4.57;2.85;;;;;;;;;;616014;23;1312;-75
2023/08/05 09:52:08;;;;;;;4.43;2.80;;;;;;;;;;617107;23;1237;-75
2023/08/05 09:52:25;;;;;;;3.40;2.90;;;;;;;;;;621328;23;1288;-75
2023/08/05 09:52:42;;;;;;;3.45;3.15;;;;;;;;;;618998;23;1389;-75
2023/08/05 09:53:13;;;;;;;3.50;3.20;;;;;;;;;;618642;23;1517;-75
2023/08/05 09:53:33;;;;;;;3.83;3.13;;;;;;;;;;614127;23;1350;-75
2023/08/05 09:53:55;;;;;;;3.80;2.97;;;;;;;;;;615455;23;1348;-74
2023/08/05 09:54:23;;;;;;;6.35;3.28;;;;;;;;;;615303;23;1329;-75
2023/08/05 09:54:39;;;;;;;4.85;3.30;;;;;;;;;;611923;23;1371;-76
2023/08/05 09:55:03;;;;;;;3.42;3.03;;;;;;;;;;614243;23;1119;-76
2023/08/05 09:55:22;;;;;;;3.20;2.90;;;;;;;;;;613700;23;876;-76
2023/08/05 09:55:38;;;;;;;3.20;2.85;;;;;;;;;;613175;23;1367;-75
2023/08/05 09:55:54;;;;;;;3.38;2.90;;;;;;;;;;615329;23;1467;-75
2023/08/05 09:56:15;;;;;;;4.38;3.20;;;;;;;;;;617729;23;867;-75
2023/08/05 09:56:38;;;;;;;3.88;3.10;;;;;;;;;;617299;23;1377;-75
2023/08/05 09:57:00;;;;;;;4.00;3.30;;;;;;;;;;617245;23;1432;-76
2023/08/05 09:57:18;;;;;;;3.75;3.30;;;;;;;;;;618328;23;1305;-75
2023/08/05 09:57:33;;;;;;;3.58;3.08;;;;;;;;;;619678;23;1560;-75
2023/08/05 09:57:49;;;;;;;3.33;3.03;;;;;;;;;;618510;23;1324;-76
2023/08/05 09:58:08;;;;;;;3.40;3.10;;;;;;;;;;618851;23;993;-75
2023/08/05 09:58:24;;;;;;;3.85;3.20;;;;;;;;;;618653;23;1272;-75
2023/08/05 09:58:42;;;;;;;3.75;3.10;;;;;;;;;;618256;23;1379;-75
2023/08/05 09:58:58;;;;;;;3.17;2.80;;;;;;;;;;621053;23;1347;-75
2023/08/05 09:59:24;;;;;;;3.45;2.90;;;;;;;;;;620315;23;1419;-75
2023/08/05 09:59:43;;;;;;;3.75;3.20;;;;;;;;;;617842;23;1340;-75
2023/08/05 10:00:15;;;;;;;3.50;3.20;;;;;;;;;;614720;23;1692;-75
2023/08/05 10:00:34;;;;;;;3.80;2.78;;;;;;;;;;616200;23;1391;-75
2023/08/05 10:00:51;;;;;;;3.90;2.88;;;;;;;;;;616650;23;870;-76
2023/08/05 10:01:07;;;;;;;3.25;2.90;;;;;;;;;;615131;23;1111;-74
2023/08/05 10:01:23;;;;;;;4.32;3.00;;;;;;;;;;612753;23;1205;-76
2023/08/05 10:01:46;;;;;;;4.18;2.95;;;;;;;;;;611323;23;1363;-76
2023/08/05 10:02:02;;;;;;;2.92;2.70;;;;;;;;;;614546;23;1146;-76
2023/08/05 10:02:25;;;;;;;2.88;2.60;;;;;;;;;;614762;23;1304;-75
2023/08/05 10:02:45;;;;;;;2.60;2.40;;;;;;;;;;617659;23;1006;-75
2023/08/05 10:03:07;;;;;;;2.97;2.67;;;;;;;;;;615861;23;1338;-76
2023/08/05 10:03:26;;;;;;;3.20;2.60;;;;;;;;;;615658;23;882;-75
2023/08/05 10:03:42;;;;;;;3.50;2.70;;;;;;;;;;612553;23;1428;-76
2023/08/05 10:04:05;;;;;;;3.05;2.47;;;;;;;;;;615305;23;1451;-76
2023/08/05 10:04:21;;;;;;;2.85;2.38;;;;;;;;;;614698;23;1147;-76
2023/08/05 10:04:42;;;;;;;3.33;2.60;;;;;;;;;;611761;23;1203;-75
2023/08/05 10:05:00;;;;;;;2.90;2.40;;;;;;;;;;614106;23;1057;-75
2023/08/05 10:05:16;;;;;;;3.90;2.75;;;;;;;;;;614872;23;903;-76
2023/08/05 10:05:34;;;;;;;4.15;3.08;;;;;;;;;;613386;23;1250;-75
2023/08/05 10:05:54;;;;;;;3.10;2.80;;;;;;;;;;613311;23;1589;-76
2023/08/05 10:06:11;;;;;;;3.33;2.80;;;;;;;;;;615736;23;1354;-76
2023/08/05 10:06:31;;;;;;;3.85;2.80;;;;;;;;;;616704;23;1404;-76
2023/08/05 10:07:03;;;;;;;3.30;2.50;;;;;;;;;;615011;23;1377;-75
2023/08/05 10:07:25;;;;;;;4.10;2.60;;;;;;;;;;614117;23;1135;-76
2023/08/05 10:07:42;;;;;;;3.78;2.88;;;;;;;;;;617637;23;1462;-75